Terminal Aerodrome Forecast
Issued by NWS

Home | Current Version | Previous Version | Text Only | Print | Product List | Glossary On
Versions: 1 2 3 4 5 6 7 8 9 10 11 12 13 14 15 16 17 18 19 20 21
741
FTUS41 KBTV 270530
TAFRUT
TAF
KRUT 270530Z 2706/2806 18008KT P6SM BKN070
     FM271400 23012G20KT P6SM BKN050
     FM272200 24009KT P6SM BKN050
     FM280200 13005KT P6SM SCT070=

USA.gov is the U.S. government's official web portal to all federal, state and local government web resources and services.